createdAt,value
2018-06-27T00:02:22.182Z,82.90
2018-06-27T00:04:50.348Z,82.90
2018-06-27T00:07:18.532Z,83.40
2018-06-27T00:09:46.666Z,86.10
2018-06-27T00:12:14.808Z,84.10
2018-06-27T00:14:43.453Z,81.40
2018-06-27T00:17:12.134Z,76.70
2018-06-27T00:19:40.202Z,76.60
2018-06-27T00:22:08.312Z,76.60
2018-06-27T00:24:37.188Z,81.30
2018-06-27T00:27:05.293Z,81.30
2018-06-27T00:29:34.178Z,81.40
2018-06-27T00:32:03.065Z,85.20
2018-06-27T00:34:31.946Z,84.80
2018-06-27T00:37:00.826Z,83.50
2018-06-27T00:39:28.954Z,83.50
2018-06-27T00:41:57.076Z,82.30
2018-06-27T00:44:25.300Z,81.80
2018-06-27T00:46:54.327Z,84.10
2018-06-27T00:49:22.444Z,83.70
2018-06-27T00:51:50.551Z,83.20
2018-06-27T00:54:18.731Z,83.10
2018-06-27T00:56:46.843Z,83.70
2018-06-27T00:59:16.106Z,84.30
2018-06-27T01:01:44.220Z,85.20
2018-06-27T01:04:13.905Z,86.30
2018-06-27T01:06:42.014Z,86.30
2018-06-27T01:09:10.944Z,82.10
2018-06-27T01:11:39.055Z,82.00
2018-06-27T01:14:07.221Z,81.50
2018-06-27T01:16:35.331Z,79.40
2018-06-27T01:19:04.224Z,79.50
2018-06-27T01:21:32.317Z,83.20
2018-06-27T01:24:00.539Z,82.60
2018-06-27T01:26:28.706Z,81.80
2018-06-27T01:28:56.833Z,82.80
2018-06-27T01:31:24.940Z,83.50
2018-06-27T01:33:53.052Z,84.70
2018-06-27T01:36:21.930Z,83.80
2018-06-27T01:38:51.194Z,82.50
2018-06-27T01:41:20.124Z,83.00
2018-06-27T01:43:49.322Z,78.60
2018-06-27T01:46:17.417Z,78.60
2018-06-27T01:48:45.529Z,79.00
2018-06-27T01:51:13.636Z,80.00
2018-06-27T01:53:41.734Z,79.50
2018-06-27T01:56:09.852Z,77.60
2018-06-27T01:58:37.944Z,76.20
2018-06-27T02:01:06.061Z,74.50
2018-06-27T02:03:34.162Z,76.20
2018-06-27T02:06:02.299Z,72.70
2018-06-27T02:08:31.164Z,75.60
2018-06-27T02:11:00.048Z,78.50
2018-06-27T02:13:28.179Z,78.50
2018-06-27T02:15:56.294Z,80.90
2018-06-27T02:18:25.182Z,83.20
2018-06-27T02:20:54.097Z,84.40
2018-06-27T02:23:22.220Z,84.40
2018-06-27T02:25:50.341Z,85.10
2018-06-27T02:28:19.221Z,85.90
2018-06-27T02:30:48.109Z,85.90
2018-06-27T02:33:17.009Z,83.00
2018-06-27T02:35:45.902Z,81.40
2018-06-27T02:38:14.778Z,80.30
2018-06-27T02:40:43.671Z,79.10
2018-06-27T02:43:12.562Z,79.00
2018-06-27T02:45:40.723Z,79.00
2018-06-27T02:48:08.842Z,78.60
2018-06-27T02:50:36.966Z,79.50
2018-06-27T02:53:05.091Z,79.70
2018-06-27T02:55:33.208Z,80.20
2018-06-27T02:58:01.343Z,81.70
2018-06-27T03:00:29.475Z,82.50
2018-06-27T03:02:58.356Z,84.10
2018-06-27T03:05:27.347Z,84.00
2018-06-27T03:07:55.466Z,84.80
2018-06-27T03:10:23.583Z,83.40
2018-06-27T03:12:51.723Z,83.10
2018-06-27T03:15:20.651Z,82.30
2018-06-27T03:17:48.846Z,83.20
2018-06-27T03:20:17.804Z,85.20
2018-06-27T03:22:46.602Z,85.30
2018-06-27T03:25:15.327Z,85.30
2018-06-27T03:27:44.233Z,85.60
2018-06-27T03:30:12.354Z,85.60
2018-06-27T03:32:42.133Z,86.60
2018-06-27T03:35:10.246Z,87.10
2018-06-27T03:37:39.053Z,88.00
2018-06-27T03:40:07.937Z,84.10
2018-06-27T03:42:36.078Z,84.10
2018-06-27T03:45:04.199Z,82.30
2018-06-27T03:47:33.093Z,82.20
2018-06-27T03:50:01.974Z,79.80
2018-06-27T03:52:30.853Z,78.20
2018-06-27T03:54:59.741Z,77.70
2018-06-27T03:57:27.861Z,77.70
2018-06-27T03:59:55.988Z,75.70
2018-06-27T04:02:24.101Z,75.00
2018-06-27T04:04:52.212Z,75.10
2018-06-27T04:07:20.406Z,73.80
2018-06-27T04:09:48.548Z,74.20
2018-06-27T04:12:16.649Z,75.70
2018-06-27T04:14:44.770Z,76.30
2018-06-27T04:17:13.455Z,77.10
2018-06-27T04:19:42.306Z,73.60
2018-06-27T04:22:11.199Z,74.50
2018-06-27T04:24:39.313Z,74.50
2018-06-27T04:27:07.411Z,72.10
2018-06-27T04:29:35.520Z,72.10
2018-06-27T04:32:04.392Z,71.80
2018-06-27T04:34:32.581Z,71.90
2018-06-27T04:37:01.474Z,71.90
2018-06-27T04:39:30.354Z,71.00
2018-06-27T04:41:58.481Z,71.00
2018-06-27T04:44:26.731Z,72.60
2018-06-27T04:46:54.852Z,71.80
2018-06-27T04:49:23.126Z,70.90
2018-06-27T04:51:51.220Z,68.70
2018-06-27T04:54:20.421Z,68.20
2018-06-27T04:57:09.295Z,69.60
2018-06-27T04:59:40.801Z,70.20
2018-06-27T05:02:10.783Z,70.80
2018-06-27T05:04:40.627Z,70.30
2018-06-27T05:07:12.221Z,70.40
2018-06-27T05:09:40.358Z,70.20
2018-06-27T05:12:08.467Z,68.40
2018-06-27T05:14:37.358Z,67.00
2018-06-27T05:17:05.491Z,67.00
2018-06-27T05:19:33.729Z,68.10
2018-06-27T05:22:03.116Z,69.70
2018-06-27T05:24:31.299Z,69.70
2018-06-27T05:27:00.171Z,69.30
2018-06-27T05:29:28.741Z,69.30
2018-06-27T05:31:56.919Z,67.80
2018-06-27T05:34:26.327Z,68.30
2018-06-27T05:36:55.192Z,67.30
2018-06-27T05:39:23.315Z,66.90
2018-06-27T05:41:52.209Z,66.90
2018-06-27T05:44:21.458Z,64.40
2018-06-27T05:46:49.554Z,64.40
2018-06-27T05:49:17.678Z,63.90
2018-06-27T05:51:46.784Z,64.00
2018-06-27T05:54:15.861Z,63.90
2018-06-27T05:56:43.991Z,63.70
2018-06-27T05:59:12.126Z,62.30
2018-06-27T06:01:40.238Z,62.40
2018-06-27T06:04:09.459Z,64.20
2018-06-27T06:06:38.362Z,65.50
2018-06-27T06:09:06.492Z,65.50
2018-06-27T06:11:35.328Z,66.00
2018-06-27T06:14:03.403Z,62.10
2018-06-27T06:16:31.557Z,63.10
2018-06-27T06:19:03.910Z,63.20
2018-06-27T06:21:32.066Z,64.80
2018-06-27T06:24:00.178Z,66.30
2018-06-27T06:26:29.144Z,64.80
2018-06-27T06:28:57.254Z,64.70
2018-06-27T06:31:25.385Z,65.20
2018-06-27T06:33:53.751Z,62.10
2018-06-27T06:36:21.854Z,61.70
2018-06-27T06:38:50.747Z,60.90
2018-06-27T06:41:19.649Z,60.40
2018-06-27T06:43:48.624Z,59.30
2018-06-27T06:46:16.781Z,59.30
2018-06-27T06:48:44.892Z,55.30
2018-06-27T06:51:13.020Z,54.50
2018-06-27T06:53:42.284Z,53.20
2018-06-27T06:56:10.398Z,51.50
2018-06-27T06:58:38.564Z,51.60
2018-06-27T07:01:06.707Z,51.20
2018-06-27T07:03:34.844Z,52.40
2018-06-27T07:06:04.499Z,48.30
2018-06-27T07:08:32.604Z,48.90
2018-06-27T07:11:00.774Z,46.20
2018-06-27T07:13:28.952Z,44.50
2018-06-27T07:15:57.085Z,46.20
2018-06-27T07:18:25.218Z,44.60
2018-06-27T07:20:54.111Z,45.60
2018-06-27T07:23:27.328Z,46.10
2018-06-27T07:25:56.034Z,46.10
2018-06-27T07:28:24.239Z,46.10
2018-06-27T07:30:52.358Z,43.00
2018-06-27T07:33:20.498Z,42.70
2018-06-27T07:35:48.620Z,44.30
2018-06-27T07:38:16.744Z,44.70
2018-06-27T07:40:44.870Z,44.90
2018-06-27T07:43:12.983Z,42.00
2018-06-27T07:45:41.119Z,42.90
2018-06-27T07:48:09.257Z,43.90
2018-06-27T07:50:39.051Z,42.30
2018-06-27T07:53:07.182Z,42.30
2018-06-27T07:55:35.312Z,40.40
2018-06-27T07:58:04.223Z,41.30
2018-06-27T08:00:32.323Z,41.30
2018-06-27T08:03:00.474Z,41.80
2018-06-27T08:05:28.589Z,41.80
2018-06-27T08:07:56.716Z,41.70
2018-06-27T08:10:24.840Z,40.60
2018-06-27T08:12:53.013Z,41.00
2018-06-27T08:15:22.105Z,39.70
2018-06-27T08:17:50.314Z,40.00
2018-06-27T08:20:18.350Z,39.70
2018-06-27T08:22:46.506Z,38.60
2018-06-27T08:25:14.645Z,37.00
2018-06-27T08:27:42.776Z,37.70
2018-06-27T08:30:11.101Z,37.30
2018-06-27T08:32:40.083Z,34.70
2018-06-27T08:35:08.614Z,35.80
2018-06-27T08:37:36.765Z,35.40
2018-06-27T08:40:04.952Z,34.80
2018-06-27T08:42:33.087Z,33.90
2018-06-27T08:45:02.059Z,31.90
2018-06-27T08:47:30.166Z,31.80
2018-06-27T08:49:58.427Z,31.30
2018-06-27T08:52:26.523Z,30.20
2018-06-27T08:54:54.743Z,31.00
2018-06-27T08:57:22.861Z,29.40
2018-06-27T08:59:52.554Z,29.70
2018-06-27T09:02:22.518Z,29.60
2018-06-27T09:04:50.732Z,29.50
2018-06-27T09:07:18.868Z,29.00
2018-06-27T09:09:47.918Z,30.50
2018-06-27T09:12:17.702Z,28.70
2018-06-27T09:14:45.894Z,28.70
2018-06-27T09:17:15.754Z,27.70
2018-06-27T09:19:43.974Z,27.70
2018-06-27T09:22:12.100Z,26.00
2018-06-27T09:24:40.221Z,27.20
2018-06-27T09:27:08.333Z,26.60
2018-06-27T09:29:36.467Z,27.30
2018-06-27T09:32:04.580Z,25.20
2018-06-27T09:34:32.710Z,26.00
2018-06-27T09:37:00.825Z,27.20
2018-06-27T09:39:28.927Z,25.30
2018-06-27T09:41:57.094Z,25.40
2018-06-27T09:44:26.012Z,24.80
2018-06-27T09:46:55.038Z,24.70
2018-06-27T09:49:23.151Z,24.60
2018-06-27T09:51:51.866Z,24.20
2018-06-27T09:54:19.975Z,25.00
2018-06-27T09:56:48.138Z,23.80
2018-06-27T09:59:17.180Z,24.60
2018-06-27T10:01:45.344Z,24.00
2018-06-27T10:04:13.472Z,24.60
2018-06-27T10:06:42.361Z,24.50
2018-06-27T10:09:11.250Z,23.70
2018-06-27T10:11:40.149Z,22.90
2018-06-27T10:14:09.049Z,23.50
2018-06-27T10:16:37.937Z,23.00
2018-06-27T10:19:06.820Z,24.10
2018-06-27T10:21:34.956Z,24.20
2018-06-27T10:24:03.153Z,24.00
2018-06-27T10:26:31.300Z,24.50
2018-06-27T10:28:59.404Z,23.20
2018-06-27T10:31:27.529Z,24.10
2018-06-27T10:33:55.638Z,23.00
2018-06-27T10:36:23.783Z,23.20
2018-06-27T10:38:51.909Z,22.80
2018-06-27T10:41:20.777Z,23.30
2018-06-27T10:43:48.952Z,23.30
2018-06-27T10:46:18.333Z,24.50
2018-06-27T10:48:46.444Z,23.40
2018-06-27T10:51:15.326Z,23.70
2018-06-27T10:53:43.707Z,23.60
2018-06-27T10:56:12.611Z,22.50
2018-06-27T10:58:41.496Z,21.40
2018-06-27T11:01:10.385Z,21.10
2018-06-27T11:03:38.471Z,21.10
2018-06-27T11:06:07.555Z,20.50
2018-06-27T11:08:36.645Z,21.00
2018-06-27T11:11:05.307Z,21.00
2018-06-27T11:13:33.422Z,21.80
2018-06-27T11:16:01.542Z,20.60
2018-06-27T11:18:29.654Z,19.90
2018-06-27T11:20:58.543Z,21.00
2018-06-27T11:23:27.493Z,17.10
2018-06-27T11:25:55.624Z,17.10
2018-06-27T11:28:23.738Z,16.20
2018-06-27T11:30:52.093Z,17.20
2018-06-27T11:33:20.220Z,17.80
2018-06-27T11:35:48.339Z,18.10
2018-06-27T11:38:16.443Z,17.60
2018-06-27T11:40:44.557Z,19.70
2018-06-27T11:43:13.516Z,18.90
2018-06-27T11:45:42.329Z,18.60
2018-06-27T11:48:11.207Z,18.70
2018-06-27T11:50:39.311Z,18.70
2018-06-27T11:53:07.414Z,19.00
2018-06-27T11:55:35.545Z,19.60
2018-06-27T11:58:04.673Z,17.00
2018-06-27T12:00:32.795Z,17.00
2018-06-27T12:03:00.919Z,16.30
2018-06-27T12:05:29.078Z,17.10
2018-06-27T12:07:57.432Z,18.60
2018-06-27T12:10:25.533Z,17.50
2018-06-27T12:12:53.654Z,16.00
2018-06-27T12:15:21.779Z,16.20
2018-06-27T12:17:49.918Z,16.30
2018-06-27T12:20:18.808Z,16.80
2018-06-27T12:22:47.162Z,16.80
2018-06-27T12:25:15.282Z,16.40
2018-06-27T12:27:43.401Z,16.60
2018-06-27T12:30:11.511Z,14.70
2018-06-27T12:32:41.258Z,17.40
2018-06-27T12:35:09.421Z,17.40
2018-06-27T12:37:37.536Z,16.20
2018-06-27T12:40:05.705Z,14.80
2018-06-27T12:42:33.820Z,15.00
2018-06-27T12:45:02.746Z,14.80
2018-06-27T12:47:31.278Z,14.70
2018-06-27T12:49:59.517Z,15.10
2018-06-27T12:52:27.528Z,13.60
2018-06-27T12:54:55.639Z,14.10
2018-06-27T12:57:23.767Z,14.70
2018-06-27T12:59:52.179Z,15.60
2018-06-27T13:02:21.308Z,14.40
2018-06-27T13:04:49.499Z,13.90
2018-06-27T13:07:17.629Z,13.70
2018-06-27T13:09:45.743Z,12.90
2018-06-27T13:12:13.875Z,13.20
2018-06-27T13:14:42.494Z,13.50
2018-06-27T13:17:10.613Z,12.50
2018-06-27T13:19:39.485Z,9.80
2018-06-27T13:22:07.590Z,9.80
2018-06-27T13:24:35.726Z,10.20
2018-06-27T13:27:03.835Z,10.60
2018-06-27T13:29:31.952Z,9.90
2018-06-27T13:32:00.069Z,10.10
2018-06-27T13:34:29.055Z,6.50
2018-06-27T13:36:57.924Z,4.40
2018-06-27T13:39:26.029Z,4.30
2018-06-27T13:41:54.891Z,1.00
2018-06-27T13:44:22.999Z,1.00
2018-06-27T13:46:51.879Z,1.90
2018-06-27T13:49:20.743Z,1.00
2018-06-27T13:51:48.856Z,1.00
2018-06-27T13:54:17.094Z,1.00
2018-06-27T13:56:45.203Z,1.30
2018-06-27T13:59:14.078Z,1.00
2018-06-27T14:01:42.177Z,1.00
2018-06-27T14:04:10.397Z,1.00
2018-06-27T14:06:38.509Z,1.00
2018-06-27T14:09:07.389Z,1.00
2018-06-27T14:11:36.277Z,1.00
2018-06-27T14:14:05.143Z,1.00
2018-06-27T14:16:33.258Z,1.00
2018-06-27T14:19:02.133Z,1.00
2018-06-27T14:21:31.006Z,1.00
2018-06-27T14:23:59.138Z,1.00
2018-06-27T14:26:27.985Z,1.00
2018-06-27T14:28:56.855Z,1.00
2018-06-27T14:31:24.982Z,1.00
2018-06-27T14:33:53.232Z,1.00
2018-06-27T14:36:21.326Z,1.00
2018-06-27T14:38:50.367Z,1.00
2018-06-27T14:41:18.516Z,1.00
2018-06-27T14:43:46.736Z,1.00
2018-06-27T14:46:14.871Z,1.00
2018-06-27T14:48:42.984Z,1.00
2018-06-27T14:51:12.088Z,1.00
2018-06-27T14:53:41.043Z,1.00
2018-06-27T14:56:09.182Z,1.00
2018-06-27T14:58:37.317Z,1.00
2018-06-27T15:01:06.301Z,1.00
2018-06-27T15:03:34.400Z,1.00
2018-06-27T15:06:03.264Z,1.00
2018-06-27T15:08:31.373Z,1.00
2018-06-27T15:10:59.526Z,1.00
2018-06-27T15:13:28.361Z,1.00
2018-06-27T15:15:56.480Z,1.00
2018-06-27T15:18:24.598Z,1.00
2018-06-27T15:20:52.793Z,1.00
2018-06-27T15:23:20.967Z,1.00
2018-06-27T15:25:50.216Z,1.00
2018-06-27T15:28:19.010Z,1.00
2018-06-27T15:30:47.127Z,1.00
2018-06-27T15:33:15.229Z,1.00
2018-06-27T15:35:43.344Z,1.00
2018-06-27T15:38:11.451Z,1.00
2018-06-27T15:40:39.565Z,1.00
2018-06-27T15:43:07.655Z,1.00
2018-06-27T15:45:35.764Z,1.00
2018-06-27T15:48:03.871Z,1.00
2018-06-27T15:50:31.963Z,1.00
2018-06-27T15:53:00.066Z,1.00
2018-06-27T15:55:28.167Z,1.00
2018-06-27T15:57:56.291Z,1.00
2018-06-27T16:00:24.401Z,1.00
2018-06-27T16:02:52.550Z,1.00
2018-06-27T16:05:21.493Z,1.00
2018-06-27T16:07:49.611Z,1.00
2018-06-27T16:10:17.725Z,1.00
2018-06-27T16:12:45.821Z,1.00
2018-06-27T16:15:14.791Z,1.00
2018-06-27T16:17:42.911Z,1.00
2018-06-27T16:20:11.055Z,1.00
2018-06-27T16:22:39.153Z,1.00
2018-06-27T16:25:07.288Z,1.00
2018-06-27T16:27:35.403Z,1.00
2018-06-27T16:30:03.787Z,1.00
2018-06-27T16:32:32.244Z,1.00
2018-06-27T16:35:01.220Z,1.00
2018-06-27T16:37:30.111Z,1.00
2018-06-27T16:39:58.210Z,1.00
2018-06-27T16:42:27.088Z,1.00
2018-06-27T16:44:55.953Z,1.00
2018-06-27T16:47:25.534Z,1.00
2018-06-27T16:49:54.487Z,1.00
2018-06-27T16:52:23.361Z,1.00
2018-06-27T16:54:52.440Z,1.00
2018-06-27T16:57:21.352Z,1.00
2018-06-27T16:59:50.232Z,1.00
2018-06-27T17:02:19.465Z,1.00
2018-06-27T17:04:49.224Z,1.00
2018-06-27T17:07:19.817Z,1.00
2018-06-27T17:09:47.938Z,1.00
2018-06-27T17:12:16.108Z,1.00
2018-06-27T17:14:44.324Z,1.00
2018-06-27T17:17:12.427Z,1.00
2018-06-27T17:19:40.533Z,1.00
2018-06-27T17:22:08.657Z,1.00
2018-06-27T17:24:36.787Z,1.00
2018-06-27T17:27:06.257Z,1.00
2018-06-27T17:29:35.356Z,1.00
2018-06-27T17:32:03.456Z,1.00
2018-06-27T17:34:31.604Z,1.00
2018-06-27T17:36:59.731Z,1.00
2018-06-27T17:39:28.616Z,1.00
2018-06-27T17:41:57.490Z,1.00
2018-06-27T17:44:25.643Z,1.00
2018-06-27T17:46:53.811Z,1.00
2018-06-27T17:49:21.899Z,1.00
2018-06-27T17:51:58.904Z,1.00
2018-06-27T17:54:27.772Z,1.00
2018-06-27T17:56:55.894Z,1.00
2018-06-27T17:59:24.422Z,1.00
2018-06-27T18:01:52.534Z,1.00
2018-06-27T18:04:21.523Z,1.00
2018-06-27T18:06:50.406Z,1.00
2018-06-27T18:09:18.502Z,1.00
2018-06-27T18:11:47.061Z,1.00
2018-06-27T18:14:15.288Z,2.30
2018-06-27T18:16:43.487Z,2.40
2018-06-27T18:19:11.592Z,3.40
2018-06-27T18:21:40.460Z,4.70
2018-06-27T18:24:08.786Z,4.70
2018-06-27T18:26:36.919Z,5.30
2018-06-27T18:29:05.869Z,6.30
2018-06-27T18:31:33.915Z,6.30
2018-06-27T18:34:02.046Z,7.30
2018-06-27T18:36:30.156Z,8.00
2018-06-27T18:38:59.393Z,7.90
2018-06-27T18:41:27.515Z,8.20
2018-06-27T18:43:56.690Z,9.70
2018-06-27T18:46:25.064Z,9.10
2018-06-27T18:48:54.006Z,9.50
2018-06-27T18:51:22.167Z,9.40
2018-06-27T18:53:50.300Z,9.70
2018-06-27T18:56:18.466Z,10.00
2018-06-27T18:58:47.438Z,10.30
2018-06-27T19:01:15.513Z,11.60
2018-06-27T19:03:43.643Z,10.80
2018-06-27T19:06:12.510Z,11.10
2018-06-27T19:08:40.733Z,11.60
2018-06-27T19:11:08.830Z,11.50
2018-06-27T19:13:36.951Z,12.70
2018-06-27T19:16:05.882Z,13.30
2018-06-27T19:18:33.982Z,13.80
2018-06-27T19:21:03.018Z,12.80
2018-06-27T19:23:31.136Z,12.80
2018-06-27T19:25:59.272Z,13.10
2018-06-27T19:28:27.379Z,12.60
2018-06-27T19:30:55.560Z,12.50
2018-06-27T19:33:23.669Z,13.90
2018-06-27T19:35:52.718Z,12.00
2018-06-27T19:38:20.846Z,12.50
2018-06-27T19:40:49.734Z,12.30
2018-06-27T19:43:18.805Z,12.30
2018-06-27T19:45:46.981Z,13.40
2018-06-27T19:48:15.017Z,13.40
2018-06-27T19:50:44.805Z,13.70
2018-06-27T19:53:12.894Z,13.20
2018-06-27T19:55:41.398Z,13.10
2018-06-27T19:58:10.286Z,13.10
2018-06-27T20:00:38.383Z,13.20
2018-06-27T20:03:07.261Z,13.30
2018-06-27T20:05:36.112Z,13.30
2018-06-27T20:08:04.251Z,13.50
2018-06-27T20:10:33.201Z,13.90
2018-06-27T20:13:02.047Z,13.80
2018-06-27T20:15:30.168Z,13.80
2018-06-27T20:17:58.547Z,14.20
2018-06-27T20:20:26.660Z,14.40
2018-06-27T20:22:55.557Z,14.30
2018-06-27T20:25:23.678Z,14.30
2018-06-27T20:27:51.806Z,14.90
2018-06-27T20:30:20.718Z,15.00
2018-06-27T20:32:49.451Z,15.20
2018-06-27T20:35:19.094Z,15.30
2018-06-27T20:37:47.964Z,18.60
2018-06-27T20:40:16.822Z,19.20
2018-06-27T20:42:44.941Z,19.20
2018-06-27T20:45:13.209Z,18.90
2018-06-27T20:47:42.104Z,19.50
2018-06-27T20:50:10.994Z,20.10
2018-06-27T20:52:39.886Z,20.20
2018-06-27T20:55:08.125Z,20.30
2018-06-27T20:57:36.301Z,21.10
2018-06-27T21:00:04.457Z,21.50
2018-06-27T21:02:33.876Z,22.70
2018-06-27T21:05:02.051Z,22.50
2018-06-27T21:07:30.219Z,23.10
2018-06-27T21:09:58.330Z,23.90
2018-06-27T21:12:26.464Z,24.20
2018-06-27T21:14:54.587Z,24.00
2018-06-27T21:17:24.792Z,25.10
2018-06-27T21:19:53.724Z,25.00
2018-06-27T21:22:21.850Z,25.00
2018-06-27T21:24:51.736Z,25.90
2018-06-27T21:27:19.847Z,25.90
2018-06-27T21:29:47.974Z,24.40
2018-06-27T21:32:16.132Z,23.40
2018-06-27T21:34:44.312Z,21.70
2018-06-27T21:37:12.456Z,21.40
2018-06-27T21:39:40.559Z,21.40
2018-06-27T21:43:05.734Z,21.90
2018-06-27T21:45:34.982Z,20.50
2018-06-27T21:48:03.097Z,20.60
2018-06-27T21:50:31.983Z,21.40
2018-06-27T21:53:00.888Z,21.70
2018-06-27T21:55:29.085Z,21.70
2018-06-27T21:57:57.221Z,24.40
2018-06-27T22:00:26.115Z,26.40
2018-06-27T22:02:54.997Z,27.10
2018-06-27T22:05:23.980Z,29.00
2018-06-27T22:07:52.104Z,29.00
2018-06-27T22:10:21.073Z,29.20
2018-06-27T22:12:49.951Z,31.10
2018-06-27T22:15:18.927Z,30.60
2018-06-27T22:17:47.115Z,30.70
2018-06-27T22:20:16.094Z,32.00
2018-06-27T22:22:45.472Z,32.90
2018-06-27T22:25:13.672Z,32.60
2018-06-27T22:27:42.696Z,32.50
2018-06-27T22:30:11.428Z,31.20
2018-06-27T22:32:39.561Z,32.30
2018-06-27T22:35:07.863Z,33.40
2018-06-27T22:37:37.432Z,34.50
2018-06-27T22:40:06.762Z,35.00
2018-06-27T22:42:35.711Z,35.00
2018-06-27T22:45:04.613Z,35.40
2018-06-27T22:47:33.513Z,36.70
2018-06-27T22:50:02.390Z,38.00
2018-06-27T22:52:30.539Z,37.90
2018-06-27T22:54:59.430Z,38.40
2018-06-27T22:57:27.544Z,39.50
2018-06-27T22:59:56.577Z,40.50
2018-06-27T23:02:25.471Z,40.50
2018-06-27T23:04:54.312Z,40.40
2018-06-27T23:07:23.221Z,40.90
2018-06-27T23:09:51.331Z,40.90
2018-06-27T23:12:19.444Z,40.00
2018-06-27T23:14:49.436Z,40.80
2018-06-27T23:17:17.536Z,40.80
2018-06-27T23:19:46.475Z,41.50
2018-06-27T23:22:14.606Z,41.50
2018-06-27T23:24:44.563Z,42.50
2018-06-27T23:27:13.374Z,43.10
2018-06-27T23:29:41.528Z,43.80
2018-06-27T23:32:10.285Z,43.50
2018-06-27T23:34:39.160Z,43.60
2018-06-27T23:37:08.069Z,42.40
2018-06-27T23:39:36.196Z,42.40
2018-06-27T23:42:04.316Z,42.40
2018-06-27T23:44:33.475Z,43.50
2018-06-27T23:47:01.592Z,44.90
2018-06-27T23:49:29.742Z,45.90
2018-06-27T23:51:58.751Z,47.90
2018-06-27T23:54:27.663Z,47.90
2018-06-27T23:56:55.766Z,48.50
2018-06-27T23:59:23.904Z,48.80
